Time;durP1;ratioP1;P1;durP2;ratioP2;P2;SDS_P1;SDS_P2;PMS_P1;PMS_P2;Temp;Humidity;BMP_temperature;BMP_pressure;BME280_temperature;BME280_humidity;BME280_pressure;Samples;Min_cycle;Max_cycle;Signal;HPM_P1;HPM_P2
2021/10/22 00:02:02;;;;;;;8.00;4.50;;;;;;;;;;5411585;22;20333;-66
2021/10/22 00:04:28;;;;;;;8.15;5.00;;;;;;;;;;4975002;28;20313;-67
2021/10/22 00:06:53;;;;;;;8.60;5.63;;;;;;;;;;5001642;28;20416;-67
2021/10/22 00:09:18;;;;;;;7.90;4.90;;;;;;;;;;4986418;28;20507;-65
2021/10/22 00:11:45;;;;;;;8.40;5.07;;;;;;;;;;4986416;28;20488;-67
2021/10/22 00:14:10;;;;;;;7.63;5.00;;;;;;;;;;4987102;28;20846;-67
2021/10/22 00:16:36;;;;;;;6.68;4.63;;;;;;;;;;4986959;28;20102;-67
2021/10/22 00:19:01;;;;;;;6.25;4.55;;;;;;;;;;5002177;28;20100;-67
2021/10/22 00:21:26;;;;;;;7.43;4.82;;;;;;;;;;4986541;28;20037;-65
2021/10/22 00:23:52;;;;;;;8.00;5.03;;;;;;;;;;4986307;28;20416;-65
2021/10/22 00:26:17;;;;;;;7.47;4.90;;;;;;;;;;4986093;28;20696;-65
2021/10/22 00:28:43;;;;;;;6.82;4.78;;;;;;;;;;4986539;28;20031;-65
2021/10/22 00:31:08;;;;;;;7.80;5.10;;;;;;;;;;4986441;28;20036;-66
2021/10/22 00:33:34;;;;;;;7.32;5.22;;;;;;;;;;5001072;28;20040;-65
2021/10/22 00:35:59;;;;;;;7.78;5.07;;;;;;;;;;4985877;28;20030;-66
2021/10/22 00:38:24;;;;;;;7.93;4.88;;;;;;;;;;5001388;28;20484;-66
2021/10/22 00:40:51;;;;;;;7.27;5.23;;;;;;;;;;4986496;28;20748;-65
2021/10/22 00:43:17;;;;;;;7.10;4.88;;;;;;;;;;4986232;28;20134;-65
2021/10/22 00:45:42;;;;;;;7.38;5.00;;;;;;;;;;5001180;28;20524;-65
2021/10/22 00:48:07;;;;;;;6.82;4.55;;;;;;;;;;4986282;28;20018;-66
2021/10/22 00:50:35;;;;;;;6.57;4.50;;;;;;;;;;4986185;28;21149;-65
2021/10/22 00:53:01;;;;;;;6.53;4.68;;;;;;;;;;5000676;28;20080;-65
2021/10/22 00:55:29;;;;;;;6.70;4.67;;;;;;;;;;4986372;28;20053;-64
2021/10/22 00:57:54;;;;;;;6.68;4.68;;;;;;;;;;4985926;28;20316;-65
2021/10/22 01:00:20;;;;;;;7.43;5.00;;;;;;;;;;4986248;28;20038;-65
2021/10/22 01:02:46;;;;;;;7.47;5.05;;;;;;;;;;5010292;28;20300;-65
2021/10/22 01:05:14;;;;;;;7.60;4.97;;;;;;;;;;5025592;28;20035;-65
2021/10/22 01:07:42;;;;;;;7.20;4.95;;;;;;;;;;5026544;28;20430;-65
2021/10/22 01:10:07;;;;;;;6.93;4.90;;;;;;;;;;5029062;28;20048;-65
2021/10/22 01:12:33;;;;;;;7.07;4.72;;;;;;;;;;5041073;28;20017;-65
2021/10/22 01:14:59;;;;;;;7.13;5.40;;;;;;;;;;5027658;28;20112;-65
2021/10/22 01:17:32;;;;;;;7.65;4.80;;;;;;;;;;5024526;28;20103;-65
2021/10/22 01:19:57;;;;;;;7.95;4.70;;;;;;;;;;5025346;28;20276;-64
2021/10/22 01:22:22;;;;;;;6.97;4.90;;;;;;;;;;5023569;28;20090;-64
2021/10/22 01:24:49;;;;;;;9.07;5.22;;;;;;;;;;5024169;28;20426;-65
2021/10/22 01:27:14;;;;;;;7.50;5.35;;;;;;;;;;5025121;28;20033;-66
2021/10/22 01:29:39;;;;;;;6.40;4.70;;;;;;;;;;5025085;28;20022;-65
2021/10/22 01:32:05;;;;;;;7.10;5.00;;;;;;;;;;5024573;28;20025;-65
2021/10/22 01:34:30;;;;;;;6.97;5.00;;;;;;;;;;5021805;28;20268;-66
2021/10/22 01:36:55;;;;;;;7.17;5.10;;;;;;;;;;5024015;28;20403;-65
2021/10/22 01:39:21;;;;;;;6.63;4.80;;;;;;;;;;5024934;28;20534;-65
2021/10/22 01:41:46;;;;;;;7.88;5.53;;;;;;;;;;5024725;28;20400;-65
2021/10/22 01:44:13;;;;;;;6.53;4.90;;;;;;;;;;5024409;28;20144;-65
2021/10/22 01:46:38;;;;;;;7.30;5.05;;;;;;;;;;5026093;28;20589;-65
2021/10/22 01:49:04;;;;;;;6.50;4.85;;;;;;;;;;5022896;28;20025;-65
2021/10/22 01:51:29;;;;;;;6.35;4.47;;;;;;;;;;5028299;28;20499;-65
2021/10/22 01:53:55;;;;;;;6.93;5.17;;;;;;;;;;5028074;28;20049;-65
2021/10/22 01:56:20;;;;;;;6.68;4.55;;;;;;;;;;5028869;28;20256;-65
2021/10/22 01:58:45;;;;;;;7.60;4.50;;;;;;;;;;5028897;28;20018;-65
2021/10/22 02:01:10;;;;;;;7.23;4.87;;;;;;;;;;5028631;28;20267;-65
2021/10/22 02:03:36;;;;;;;6.60;4.93;;;;;;;;;;5028020;28;20053;-65
2021/10/22 02:06:01;;;;;;;7.20;4.80;;;;;;;;;;5028412;28;20263;-65
2021/10/22 02:08:27;;;;;;;6.38;4.38;;;;;;;;;;5028764;28;20033;-66
2021/10/22 02:10:52;;;;;;;8.95;5.20;;;;;;;;;;5027693;28;20032;-65
2021/10/22 02:13:17;;;;;;;6.33;4.97;;;;;;;;;;5027620;28;20006;-65
2021/10/22 02:15:42;;;;;;;9.53;5.07;;;;;;;;;;5027987;28;20260;-65
2021/10/22 02:18:08;;;;;;;6.65;4.38;;;;;;;;;;5027961;28;20378;-65
2021/10/22 02:20:35;;;;;;;8.13;4.93;;;;;;;;;;5027513;28;20025;-65
2021/10/22 02:23:01;;;;;;;6.68;4.82;;;;;;;;;;5027679;28;20033;-66
2021/10/22 02:25:26;;;;;;;6.60;4.80;;;;;;;;;;5027040;28;20029;-66
2021/10/22 02:27:52;;;;;;;6.85;4.68;;;;;;;;;;5028084;28;20017;-65
2021/10/22 02:30:18;;;;;;;6.78;4.60;;;;;;;;;;5028172;28;20063;-65
2021/10/22 02:32:43;;;;;;;6.90;4.68;;;;;;;;;;5027504;28;20088;-65
2021/10/22 02:35:08;;;;;;;7.53;4.83;;;;;;;;;;5026039;28;20079;-65
2021/10/22 02:37:33;;;;;;;6.93;4.90;;;;;;;;;;5026510;28;20017;-65
2021/10/22 02:39:59;;;;;;;7.38;4.82;;;;;;;;;;5027880;28;20082;-65
2021/10/22 02:42:24;;;;;;;7.10;4.80;;;;;;;;;;5027516;28;20130;-65
2021/10/22 02:44:49;;;;;;;6.60;5.07;;;;;;;;;;5027699;28;20166;-65
2021/10/22 02:47:14;;;;;;;6.45;4.70;;;;;;;;;;5027885;28;20271;-65
2021/10/22 02:49:40;;;;;;;6.60;4.60;;;;;;;;;;5027918;28;20550;-65
2021/10/22 02:52:05;;;;;;;6.60;4.33;;;;;;;;;;5027643;28;20542;-66
2021/10/22 02:54:30;;;;;;;6.53;4.47;;;;;;;;;;5027356;28;20260;-65
2021/10/22 02:56:56;;;;;;;5.53;4.50;;;;;;;;;;5027573;28;20022;-65
2021/10/22 02:59:21;;;;;;;6.85;4.82;;;;;;;;;;5025462;28;20662;-65
2021/10/22 03:01:47;;;;;;;6.75;4.45;;;;;;;;;;5027369;28;20523;-65
2021/10/22 03:04:12;;;;;;;6.38;4.55;;;;;;;;;;5027142;28;20139;-66
2021/10/22 03:06:37;;;;;;;5.83;4.30;;;;;;;;;;5027763;28;20688;-65
2021/10/22 03:09:02;;;;;;;6.53;4.63;;;;;;;;;;5026957;28;20638;-66
2021/10/22 03:11:28;;;;;;;6.33;4.73;;;;;;;;;;5026856;28;20492;-65
2021/10/22 03:13:53;;;;;;;6.78;4.40;;;;;;;;;;5027164;28;20256;-65
2021/10/22 03:16:18;;;;;;;6.78;4.80;;;;;;;;;;5027464;28;20475;-65
2021/10/22 03:18:43;;;;;;;6.97;4.17;;;;;;;;;;5027341;28;20104;-65
2021/10/22 03:21:09;;;;;;;6.75;4.57;;;;;;;;;;5026960;28;21132;-65
2021/10/22 03:23:35;;;;;;;6.25;4.18;;;;;;;;;;5026849;28;20116;-66
2021/10/22 03:26:00;;;;;;;6.38;4.35;;;;;;;;;;5026310;28;20017;-65
2021/10/22 03:28:25;;;;;;;5.53;4.40;;;;;;;;;;5027137;28;20681;-65
2021/10/22 03:30:50;;;;;;;6.63;4.30;;;;;;;;;;5026965;28;20407;-65
2021/10/22 03:33:16;;;;;;;6.20;4.43;;;;;;;;;;5016647;28;20334;-66
2021/10/22 03:35:41;;;;;;;5.87;4.37;;;;;;;;;;5026738;28;20107;-65
2021/10/22 03:38:06;;;;;;;6.97;4.90;;;;;;;;;;5027103;28;20256;-67
2021/10/22 03:40:31;;;;;;;6.47;4.82;;;;;;;;;;5025589;28;20031;-65
2021/10/22 03:42:57;;;;;;;5.87;4.40;;;;;;;;;;5026402;28;20099;-66
2021/10/22 03:45:22;;;;;;;6.40;4.38;;;;;;;;;;5026734;28;20287;-65
2021/10/22 03:47:48;;;;;;;6.47;4.68;;;;;;;;;;5025585;28;20029;-65
2021/10/22 03:50:16;;;;;;;6.75;4.32;;;;;;;;;;5026782;28;20044;-65
2021/10/22 03:52:42;;;;;;;6.65;4.70;;;;;;;;;;5026086;28;20091;-66
2021/10/22 03:55:07;;;;;;;7.47;4.53;;;;;;;;;;5026664;28;20467;-66
2021/10/22 03:57:33;;;;;;;6.93;4.97;;;;;;;;;;5026485;28;20549;-66
2021/10/22 03:59:58;;;;;;;6.10;4.32;;;;;;;;;;5026373;28;20507;-66
2021/10/22 04:02:23;;;;;;;5.97;4.33;;;;;;;;;;5025909;28;20132;-66
2021/10/22 04:04:48;;;;;;;5.23;4.23;;;;;;;;;;5026463;28;20267;-66
2021/10/22 04:07:14;;;;;;;6.53;4.53;;;;;;;;;;5026377;28;20014;-66
2021/10/22 04:09:39;;;;;;;6.37;4.43;;;;;;;;;;5025397;28;20257;-66
2021/10/22 04:12:04;;;;;;;7.07;4.50;;;;;;;;;;5024592;28;20272;-66
2021/10/22 04:14:29;;;;;;;6.13;4.15;;;;;;;;;;5026140;28;20837;-65
2021/10/22 04:16:56;;;;;;;6.65;4.25;;;;;;;;;;5025852;28;20040;-66
2021/10/22 04:19:21;;;;;;;6.57;4.10;;;;;;;;;;5025812;28;20494;-66
2021/10/22 04:21:47;;;;;;;6.80;4.05;;;;;;;;;;5025980;28;20037;-66
2021/10/22 04:24:12;;;;;;;5.53;4.07;;;;;;;;;;5025076;28;20029;-66
2021/10/22 04:26:37;;;;;;;6.13;4.57;;;;;;;;;;5025677;28;20032;-65
2021/10/22 04:29:02;;;;;;;6.80;4.57;;;;;;;;;;5026168;28;20355;-65
2021/10/22 04:31:28;;;;;;;5.33;4.00;;;;;;;;;;5025185;28;20056;-66
2021/10/22 04:33:53;;;;;;;5.97;3.97;;;;;;;;;;5025774;28;20052;-66
2021/10/22 04:36:18;;;;;;;5.23;3.80;;;;;;;;;;5025767;28;20319;-65
2021/10/22 04:41:27;;;;;;;8.30;4.50;;;;;;;;;;5025420;28;21170;-71
2021/10/22 04:43:53;;;;;;;6.75;3.95;;;;;;;;;;5030226;28;20032;-65
2021/10/22 04:46:18;;;;;;;5.10;3.57;;;;;;;;;;5040931;28;20021;-68
2021/10/22 04:48:44;;;;;;;5.15;3.83;;;;;;;;;;5040651;28;20262;-66
2021/10/22 04:51:09;;;;;;;7.47;4.13;;;;;;;;;;5033180;28;20032;-65
2021/10/22 04:53:34;;;;;;;7.10;3.90;;;;;;;;;;5042494;28;20016;-64
2021/10/22 04:56:00;;;;;;;4.73;3.90;;;;;;;;;;5035459;28;20426;-65
2021/10/22 04:58:25;;;;;;;5.30;3.55;;;;;;;;;;4990285;28;20283;-65
2021/10/22 05:00:51;;;;;;;5.53;3.93;;;;;;;;;;5039239;28;20106;-67
2021/10/22 05:03:17;;;;;;;5.63;3.65;;;;;;;;;;5038573;28;20296;-66
2021/10/22 05:05:42;;;;;;;5.85;3.60;;;;;;;;;;5026000;28;20035;-67
2021/10/22 05:08:07;;;;;;;7.00;3.80;;;;;;;;;;5025046;28;20403;-66
2021/10/22 05:10:33;;;;;;;5.87;3.90;;;;;;;;;;5024317;28;20314;-65
2021/10/22 05:12:59;;;;;;;5.72;3.85;;;;;;;;;;5023943;28;20274;-64
2021/10/22 05:15:24;;;;;;;6.88;3.72;;;;;;;;;;5024705;28;20108;-67
2021/10/22 05:17:50;;;;;;;5.28;3.67;;;;;;;;;;5034823;28;20155;-67
2021/10/22 05:20:15;;;;;;;5.82;3.83;;;;;;;;;;4986560;28;20025;-65
2021/10/22 05:22:41;;;;;;;5.37;3.77;;;;;;;;;;5016928;28;20020;-66
2021/10/22 05:25:06;;;;;;;4.53;3.30;;;;;;;;;;5039195;28;20480;-65
2021/10/22 05:27:32;;;;;;;6.57;3.55;;;;;;;;;;5042985;28;20071;-64
2021/10/22 05:29:57;;;;;;;5.63;3.70;;;;;;;;;;5044136;28;20392;-64
2021/10/22 05:32:23;;;;;;;5.00;3.45;;;;;;;;;;5056047;28;20712;-65
2021/10/22 05:34:49;;;;;;;6.83;3.90;;;;;;;;;;5059342;28;20031;-66
2021/10/22 05:37:14;;;;;;;5.68;3.63;;;;;;;;;;5059361;28;20264;-66
2021/10/22 05:39:39;;;;;;;6.20;3.70;;;;;;;;;;5059892;28;20032;-65
2021/10/22 05:42:04;;;;;;;5.13;3.10;;;;;;;;;;5061246;28;20993;-66
2021/10/22 05:44:30;;;;;;;5.40;3.83;;;;;;;;;;5060179;28;20554;-65
2021/10/22 05:46:55;;;;;;;5.82;3.60;;;;;;;;;;5062665;28;20016;-66
2021/10/22 05:49:21;;;;;;;4.65;3.17;;;;;;;;;;5059830;28;20028;-65
2021/10/22 05:51:47;;;;;;;5.28;3.42;;;;;;;;;;5058798;28;20027;-65
2021/10/22 05:54:12;;;;;;;5.97;3.88;;;;;;;;;;5058030;28;20052;-64
2021/10/22 05:56:37;;;;;;;5.83;3.47;;;;;;;;;;5059103;28;20055;-64
2021/10/22 05:59:02;;;;;;;5.40;3.83;;;;;;;;;;5061802;28;20082;-65
2021/10/22 06:01:28;;;;;;;10.23;9.23;;;;;;;;;;5057465;28;20482;-65
2021/10/22 06:04:00;;;;;;;6.37;3.57;;;;;;;;;;5059990;28;20610;-64
2021/10/22 06:06:25;;;;;;;5.85;3.60;;;;;;;;;;5058304;28;20031;-64
2021/10/22 06:08:51;;;;;;;5.22;3.40;;;;;;;;;;5061011;28;20024;-65
2021/10/22 06:11:16;;;;;;;6.68;3.58;;;;;;;;;;5059342;28;20021;-64
2021/10/22 06:13:42;;;;;;;5.90;3.53;;;;;;;;;;5062543;28;20650;-65
2021/10/22 06:16:07;;;;;;;4.70;3.10;;;;;;;;;;5061122;28;20031;-65
2021/10/22 06:18:34;;;;;;;4.97;3.22;;;;;;;;;;5057900;28;20024;-64
2021/10/22 06:21:04;;;;;;;4.78;3.50;;;;;;;;;;5058698;28;20488;-64
2021/10/22 06:26:13;;;;;;;5.07;3.67;;;;;;;;;;5046217;28;20036;-66
2021/10/22 06:28:39;;;;;;;6.70;3.43;;;;;;;;;;5047155;28;20021;-66
2021/10/22 06:31:05;;;;;;;4.00;2.83;;;;;;;;;;5037020;28;20292;-64
2021/10/22 06:33:30;;;;;;;5.27;3.43;;;;;;;;;;5060051;28;20027;-64
2021/10/22 06:35:55;;;;;;;5.43;3.30;;;;;;;;;;5062754;28;20112;-62
2021/10/22 06:38:21;;;;;;;8.25;4.50;;;;;;;;;;5059185;28;20120;-64
2021/10/22 06:40:46;;;;;;;6.10;4.38;;;;;;;;;;5049915;28;20029;-64
2021/10/22 06:43:13;;;;;;;5.63;3.67;;;;;;;;;;5045775;28;20025;-64
2021/10/22 06:45:38;;;;;;;6.63;3.78;;;;;;;;;;5043282;28;20417;-63
2021/10/22 06:48:05;;;;;;;6.77;3.53;;;;;;;;;;5064983;28;20046;-64
2021/10/22 06:50:31;;;;;;;6.30;3.75;;;;;;;;;;5061328;28;20362;-64
2021/10/22 06:52:56;;;;;;;4.82;3.50;;;;;;;;;;5058214;28;20439;-64
2021/10/22 06:55:21;;;;;;;5.10;3.67;;;;;;;;;;5062678;28;20028;-63
2021/10/22 06:57:46;;;;;;;5.93;3.67;;;;;;;;;;5061373;28;20021;-64
2021/10/22 07:00:12;;;;;;;4.78;3.25;;;;;;;;;;5054550;28;20309;-64
2021/10/22 07:02:50;;;;;;;5.85;3.63;;;;;;;;;;5054882;28;20040;-64
2021/10/22 07:08:00;;;;;;;4.43;3.20;;;;;;;;;;5060204;28;20020;-64
2021/10/22 07:10:25;;;;;;;7.30;4.03;;;;;;;;;;5052637;28;20028;-64
2021/10/22 07:12:51;;;;;;;5.82;3.67;;;;;;;;;;5060563;28;20020;-64
2021/10/22 07:15:17;;;;;;;4.10;3.20;;;;;;;;;;5058338;28;21405;-64
2021/10/22 07:17:44;;;;;;;5.18;3.45;;;;;;;;;;5059185;28;20150;-64
2021/10/22 07:20:11;;;;;;;5.13;3.40;;;;;;;;;;5057551;28;20036;-64
2021/10/22 07:22:40;;;;;;;5.75;3.88;;;;;;;;;;5064655;28;20482;-63
2021/10/22 07:25:05;;;;;;;5.28;3.45;;;;;;;;;;5056855;28;20032;-64
2021/10/22 07:27:31;;;;;;;5.38;4.05;;;;;;;;;;5054899;28;20033;-63
2021/10/22 07:29:57;;;;;;;4.95;3.53;;;;;;;;;;5053441;28;20441;-63
2021/10/22 07:32:22;;;;;;;5.57;3.55;;;;;;;;;;5041730;28;20108;-64
2021/10/22 07:34:47;;;;;;;5.40;3.70;;;;;;;;;;5038891;28;20091;-63
2021/10/22 07:37:13;;;;;;;6.72;3.60;;;;;;;;;;5056187;28;20971;-64
2021/10/22 07:39:38;;;;;;;7.03;3.08;;;;;;;;;;5054618;28;20689;-63
2021/10/22 07:42:04;;;;;;;6.30;3.67;;;;;;;;;;5056719;28;20043;-64
2021/10/22 07:44:30;;;;;;;5.40;3.87;;;;;;;;;;5062169;28;20778;-64
2021/10/22 07:46:57;;;;;;;5.32;3.35;;;;;;;;;;5061568;28;20262;-63
2021/10/22 07:49:22;;;;;;;4.70;3.22;;;;;;;;;;5062851;28;20047;-64
2021/10/22 07:51:47;;;;;;;5.07;3.60;;;;;;;;;;5061264;28;20760;-64
2021/10/22 07:54:13;;;;;;;5.87;3.50;;;;;;;;;;5059435;28;20020;-63
2021/10/22 07:56:43;;;;;;;5.00;3.57;;;;;;;;;;5058681;28;20463;-63
2021/10/22 07:59:08;;;;;;;;;;;;;;;;;;5062544;28;20070;-63
2021/10/22 08:01:33;;;;;;;5.28;3.55;;;;;;;;;;4995038;28;19916;-64
2021/10/22 08:03:58;;;;;;;5.73;3.80;;;;;;;;;;4997169;28;20644;-63
2021/10/22 08:06:24;;;;;;;6.90;3.88;;;;;;;;;;5060649;28;20052;-64
2021/10/22 08:08:50;;;;;;;6.63;5.80;;;;;;;;;;5063735;28;20032;-64
2021/10/22 08:11:16;;;;;;;6.43;4.10;;;;;;;;;;5056160;28;20036;-63
2021/10/22 08:13:42;;;;;;;6.53;3.53;;;;;;;;;;5063169;28;20021;-64
2021/10/22 08:16:07;;;;;;;4.85;3.15;;;;;;;;;;5061834;28;20063;-63
2021/10/22 08:18:33;;;;;;;5.57;3.60;;;;;;;;;;5057707;28;20020;-64
2021/10/22 08:21:01;;;;;;;6.18;3.70;;;;;;;;;;5061170;28;20037;-63
2021/10/22 08:23:27;;;;;;;5.50;3.50;;;;;;;;;;5058192;28;20029;-63
2021/10/22 08:25:53;;;;;;;6.20;3.70;;;;;;;;;;5050537;28;20036;-63
2021/10/22 08:28:18;;;;;;;5.47;3.80;;;;;;;;;;5055123;28;20079;-63
2021/10/22 08:30:44;;;;;;;5.53;3.75;;;;;;;;;;5059823;28;20417;-63
2021/10/22 08:33:11;;;;;;;5.72;3.67;;;;;;;;;;5062902;28;20024;-63
2021/10/22 08:35:37;;;;;;;5.45;4.00;;;;;;;;;;5056978;28;20029;-63
2021/10/22 08:38:04;;;;;;;5.20;3.88;;;;;;;;;;5061290;28;20031;-63
2021/10/22 08:40:29;;;;;;;4.97;3.65;;;;;;;;;;5057516;28;20029;-64
2021/10/22 08:42:54;;;;;;;6.18;3.75;;;;;;;;;;5060681;28;20100;-64
2021/10/22 08:45:20;;;;;;;6.47;3.60;;;;;;;;;;5051085;28;20506;-63
2021/10/22 08:47:46;;;;;;;6.40;4.03;;;;;;;;;;5058414;28;20369;-64
2021/10/22 08:50:12;;;;;;;5.93;3.97;;;;;;;;;;5058988;28;20079;-64
2021/10/22 08:52:38;;;;;;;5.72;3.50;;;;;;;;;;5075499;28;20552;-64
2021/10/22 08:55:04;;;;;;;5.45;3.80;;;;;;;;;;5061062;28;20044;-64
2021/10/22 08:57:29;;;;;;;5.00;3.60;;;;;;;;;;5054646;28;20079;-64
2021/10/22 08:59:58;;;;;;;4.88;3.40;;;;;;;;;;5050758;28;20446;-62
2021/10/22 09:02:25;;;;;;;8.23;4.32;;;;;;;;;;5055803;28;20028;-62
2021/10/22 09:04:50;;;;;;;7.43;3.75;;;;;;;;;;5035722;28;20025;-62
2021/10/22 09:07:17;;;;;;;5.70;3.65;;;;;;;;;;5044944;28;20017;-63
2021/10/22 09:09:43;;;;;;;5.63;3.78;;;;;;;;;;5044949;28;20031;-62
2021/10/22 09:12:08;;;;;;;7.25;4.00;;;;;;;;;;5046554;28;20025;-62
2021/10/22 09:14:35;;;;;;;7.70;4.53;;;;;;;;;;5044937;28;20036;-62
2021/10/22 09:17:00;;;;;;;5.90;3.97;;;;;;;;;;5044044;28;20665;-62
2021/10/22 09:19:33;;;;;;;5.82;4.00;;;;;;;;;;5059017;28;20035;-63
2021/10/22 09:22:17;;;;;;;5.68;3.60;;;;;;;;;;5062169;28;20154;-63
2021/10/22 09:24:43;;;;;;;8.02;4.15;;;;;;;;;;5031266;28;20116;-62
2021/10/22 09:27:08;;;;;;;6.50;4.03;;;;;;;;;;5040615;28;20117;-62
2021/10/22 09:29:33;;;;;;;5.23;3.83;;;;;;;;;;5059752;28;20491;-62
2021/10/22 09:31:58;;;;;;;6.67;3.70;;;;;;;;;;5046093;28;20532;-63
2021/10/22 09:34:28;;;;;;;6.13;4.07;;;;;;;;;;5047496;28;20491;-64
2021/10/22 09:36:53;;;;;;;6.82;4.00;;;;;;;;;;5050256;28;20051;-63
2021/10/22 09:39:19;;;;;;;7.07;3.77;;;;;;;;;;5041548;28;20022;-63
2021/10/22 09:41:51;;;;;;;13.82;12.10;;;;;;;;;;5041670;28;20021;-63
2021/10/22 09:44:22;;;;;;;7.45;4.60;;;;;;;;;;5038913;28;20104;-63
2021/10/22 09:46:51;;;;;;;6.35;3.50;;;;;;;;;;5043677;28;20021;-63
2021/10/22 09:49:24;;;;;;;10.73;4.05;;;;;;;;;;5047098;28;20028;-63
2021/10/22 09:51:49;;;;;;;7.18;4.18;;;;;;;;;;5036058;28;20035;-63
2021/10/22 09:54:15;;;;;;;4.97;3.78;;;;;;;;;;5046010;28;20020;-63
2021/10/22 09:56:42;;;;;;;8.07;4.03;;;;;;;;;;5042774;28;20033;-63
2021/10/22 09:59:11;;;;;;;6.10;3.88;;;;;;;;;;5050490;28;20648;-63
2021/10/22 10:01:37;;;;;;;5.37;3.67;;;;;;;;;;5063599;28;20032;-62
2021/10/22 10:04:06;;;;;;;7.88;4.00;;;;;;;;;;5061415;28;20303;-62
2021/10/22 10:06:31;;;;;;;7.03;4.30;;;;;;;;;;5048428;28;20032;-63
2021/10/22 10:08:56;;;;;;;6.63;4.22;;;;;;;;;;5076332;28;20554;-63
2021/10/22 10:11:22;;;;;;;6.40;4.28;;;;;;;;;;5066376;28;20029;-63
2021/10/22 10:13:48;;;;;;;6.60;3.95;;;;;;;;;;5049791;28;20028;-62
2021/10/22 10:16:14;;;;;;;7.25;3.80;;;;;;;;;;5037909;28;20586;-63
2021/10/22 10:18:44;;;;;;;6.20;4.40;;;;;;;;;;5050824;28;20139;-65
2021/10/22 10:21:10;;;;;;;6.90;3.80;;;;;;;;;;5064255;28;20028;-65
2021/10/22 10:23:37;;;;;;;6.72;4.00;;;;;;;;;;5053384;28;20083;-64
2021/10/22 10:26:38;;;;;;;8.90;4.43;;;;;;;;;;5068678;28;20029;-64
2021/10/22 10:29:04;;;;;;;7.50;4.30;;;;;;;;;;5030139;28;20823;-66
2021/10/22 10:31:39;;;;;;;7.47;4.38;;;;;;;;;;5048971;28;20032;-65
2021/10/22 10:34:23;;;;;;;6.90;3.75;;;;;;;;;;5060245;28;20040;-64
2021/10/22 10:36:49;;;;;;;7.47;3.83;;;;;;;;;;5065445;28;20044;-64
2021/10/22 10:39:14;;;;;;;6.93;3.88;;;;;;;;;;5065910;28;20098;-63
2021/10/22 10:41:40;;;;;;;6.43;3.88;;;;;;;;;;5058256;28;20106;-63
2021/10/22 10:44:25;;;;;;;7.40;4.30;;;;;;;;;;5057053;28;20033;-62
2021/10/22 10:46:50;;;;;;;7.88;4.32;;;;;;;;;;5050489;28;20349;-63
2021/10/22 10:49:34;;;;;;;6.03;3.93;;;;;;;;;;5060921;28;20037;-62
2021/10/22 10:52:00;;;;;;;6.75;4.13;;;;;;;;;;5059243;28;20294;-62
2021/10/22 10:54:28;;;;;;;5.50;3.97;;;;;;;;;;5053312;28;20017;-64
2021/10/22 10:56:53;;;;;;;7.90;3.88;;;;;;;;;;5059931;28;20020;-62
2021/10/22 10:59:37;;;;;;;7.47;4.40;;;;;;;;;;5061057;28;20027;-63
2021/10/22 11:02:02;;;;;;;6.53;4.15;;;;;;;;;;5060477;28;20028;-63
2021/10/22 11:04:46;;;;;;;6.90;4.28;;;;;;;;;;5055249;28;20079;-66
2021/10/22 11:07:31;;;;;;;7.38;4.65;;;;;;;;;;5065107;28;20032;-65
2021/10/22 11:09:57;;;;;;;7.15;4.45;;;;;;;;;;5052506;28;20036;-63
2021/10/22 11:12:22;;;;;;;7.32;4.45;;;;;;;;;;5051506;28;20659;-63
2021/10/22 11:14:57;;;;;;;5.90;4.07;;;;;;;;;;5058183;28;20512;-63
2021/10/22 11:17:26;;;;;;;6.15;3.63;;;;;;;;;;5054882;28;20729;-63
2021/10/22 11:19:51;;;;;;;6.78;4.28;;;;;;;;;;5051939;28;20086;-65
2021/10/22 11:22:25;;;;;;;6.20;4.17;;;;;;;;;;5060489;28;20025;-64
2021/10/22 11:24:50;;;;;;;5.88;4.28;;;;;;;;;;5047200;28;20087;-66
2021/10/22 11:27:17;;;;;;;7.45;4.80;;;;;;;;;;5052608;28;20021;-64
2021/10/22 11:29:43;;;;;;;9.75;4.72;;;;;;;;;;5050038;28;20032;-64
2021/10/22 11:32:11;;;;;;;8.77;5.40;;;;;;;;;;5045623;28;20055;-63
2021/10/22 11:34:41;;;;;;;7.10;4.90;;;;;;;;;;5040423;28;20025;-64
2021/10/22 11:37:15;;;;;;;11.50;4.55;;;;;;;;;;5057264;28;20033;-64
2021/10/22 11:39:51;;;;;;;8.27;5.15;;;;;;;;;;5057205;28;20449;-63
2021/10/22 11:42:28;;;;;;;8.77;4.65;;;;;;;;;;5056059;28;20028;-64
2021/10/22 11:45:03;;;;;;;6.07;4.50;;;;;;;;;;5055544;28;20055;-62
2021/10/22 11:47:34;;;;;;;6.45;4.53;;;;;;;;;;5047144;28;20029;-63
2021/10/22 11:50:09;;;;;;;9.23;4.55;;;;;;;;;;5048198;28;20031;-63
2021/10/22 11:52:35;;;;;;;7.78;4.60;;;;;;;;;;5045872;28;20086;-64
2021/10/22 11:55:00;;;;;;;7.43;4.78;;;;;;;;;;5062444;28;20021;-65
2021/10/22 11:57:25;;;;;;;7.70;4.47;;;;;;;;;;5048960;28;20407;-64
2021/10/22 11:59:54;;;;;;;8.27;4.35;;;;;;;;;;5060619;28;20420;-63
2021/10/22 12:02:20;;;;;;;7.65;4.40;;;;;;;;;;5059769;28;20036;-64
2021/10/22 12:04:46;;;;;;;6.75;4.05;;;;;;;;;;5061258;28;20029;-64
2021/10/22 12:07:11;;;;;;;8.90;4.35;;;;;;;;;;5062356;28;20039;-63
2021/10/22 12:09:38;;;;;;;6.60;4.53;;;;;;;;;;5056819;28;20071;-63
2021/10/22 12:12:13;;;;;;;6.63;4.30;;;;;;;;;;5051472;28;20115;-63
2021/10/22 12:14:41;;;;;;;6.63;4.47;;;;;;;;;;5062376;28;20024;-64
2021/10/22 12:17:09;;;;;;;7.20;4.50;;;;;;;;;;5060015;28;20025;-63
2021/10/22 12:19:34;;;;;;;7.70;4.70;;;;;;;;;;5052870;28;20020;-64
2021/10/22 12:21:59;;;;;;;6.28;4.40;;;;;;;;;;5054533;28;20074;-64
2021/10/22 12:24:28;;;;;;;6.97;4.50;;;;;;;;;;5050594;28;20025;-64
2021/10/22 12:27:03;;;;;;;6.82;3.90;;;;;;;;;;5046936;28;20299;-65
2021/10/22 12:29:28;;;;;;;6.53;4.40;;;;;;;;;;5055674;28;20103;-64
2021/10/22 12:31:54;;;;;;;8.13;4.90;;;;;;;;;;5060140;28;20116;-64
2021/10/22 12:34:30;;;;;;;6.10;4.22;;;;;;;;;;5058606;28;20271;-64
2021/10/22 12:37:09;;;;;;;6.15;3.90;;;;;;;;;;5060609;28;20025;-64
2021/10/22 12:39:39;;;;;;;6.25;4.47;;;;;;;;;;5056442;28;20215;-64
2021/10/22 12:42:04;;;;;;;6.22;4.10;;;;;;;;;;5054961;28;20031;-64
2021/10/22 12:44:30;;;;;;;5.57;3.73;;;;;;;;;;5057942;28;20032;-63
2021/10/22 12:46:56;;;;;;;6.82;4.28;;;;;;;;;;5063207;28;20259;-64
2021/10/22 12:49:28;;;;;;;7.25;4.40;;;;;;;;;;5058020;28;20037;-64
2021/10/22 12:52:03;;;;;;;7.80;4.50;;;;;;;;;;5061181;28;20071;-64
2021/10/22 12:54:28;;;;;;;5.20;4.00;;;;;;;;;;5055979;28;20035;-63
2021/10/22 12:56:57;;;;;;;6.30;4.43;;;;;;;;;;5045535;28;20013;-64
2021/10/22 12:59:24;;;;;;;6.03;3.70;;;;;;;;;;5042536;28;20059;-63
2021/10/22 13:01:49;;;;;;;6.00;3.50;;;;;;;;;;5046263;28;20024;-63
2021/10/22 13:04:18;;;;;;;6.07;3.42;;;;;;;;;;5043238;28;20048;-62
2021/10/22 13:12:23;;;;;;;5.78;3.17;;;;;;;;;;5047996;28;20639;-63
2021/10/22 13:20:34;;;;;;;8.25;3.22;;;;;;;;;;5050180;28;20288;-63
2021/10/22 13:23:01;;;;;;;6.45;3.40;;;;;;;;;;5043853;28;20415;-63
2021/10/22 13:25:26;;;;;;;7.07;3.33;;;;;;;;;;5046320;28;20021;-63
2021/10/22 13:27:52;;;;;;;6.10;3.33;;;;;;;;;;5044419;28;20475;-62
2021/10/22 13:30:27;;;;;;;6.65;3.45;;;;;;;;;;5049031;28;20063;-63
2021/10/22 13:32:52;;;;;;;5.57;3.40;;;;;;;;;;5057739;28;20016;-63
2021/10/22 13:35:18;;;;;;;6.77;3.97;;;;;;;;;;5053538;28;20548;-62
2021/10/22 13:37:43;;;;;;;5.30;3.22;;;;;;;;;;5043969;28;20491;-63
2021/10/22 13:40:09;;;;;;;6.55;3.80;;;;;;;;;;5067044;28;20029;-63
2021/10/22 13:42:34;;;;;;;5.80;3.50;;;;;;;;;;5043277;28;20042;-63
2021/10/22 13:45:00;;;;;;;6.65;3.70;;;;;;;;;;5049401;28;20025;-63
2021/10/22 13:47:25;;;;;;;5.50;3.50;;;;;;;;;;5034853;28;20411;-63
2021/10/22 13:49:50;;;;;;;5.55;4.35;;;;;;;;;;5040038;28;20082;-63
2021/10/22 13:52:15;;;;;;;5.60;3.67;;;;;;;;;;5039754;28;20051;-63
2021/10/22 13:54:42;;;;;;;6.33;3.80;;;;;;;;;;5054759;28;20298;-62
2021/10/22 13:57:07;;;;;;;7.10;3.45;;;;;;;;;;5060028;28;20036;-62
2021/10/22 13:59:34;;;;;;;6.57;3.67;;;;;;;;;;5056568;28;20567;-62
2021/10/22 14:02:00;;;;;;;5.00;3.75;;;;;;;;;;5058035;28;20021;-63
2021/10/22 14:04:25;;;;;;;5.50;3.70;;;;;;;;;;5050304;28;20167;-63
2021/10/22 14:06:50;;;;;;;6.83;3.87;;;;;;;;;;5042791;28;20021;-62
2021/10/22 14:09:15;;;;;;;7.33;3.90;;;;;;;;;;5045543;28;20043;-63
2021/10/22 14:11:50;;;;;;;11.57;6.77;;;;;;;;;;5045482;28;20775;-62
2021/10/22 14:17:05;;;;;;;8.17;4.50;;;;;;;;;;5046259;28;20047;-61
2021/10/22 14:24:49;;;;;;;6.65;4.20;;;;;;;;;;5048252;28;20032;-62
2021/10/22 14:29:58;;;;;;;8.52;3.72;;;;;;;;;;5044349;28;20126;-63
2021/10/22 14:32:27;;;;;;;5.80;4.00;;;;;;;;;;5043710;28;20475;-63
2021/10/22 14:34:58;;;;;;;8.07;4.17;;;;;;;;;;5050517;28;20124;-64
2021/10/22 14:37:23;;;;;;;6.38;3.90;;;;;;;;;;5043524;28;20094;-63
2021/10/22 14:39:48;;;;;;;6.67;3.73;;;;;;;;;;5043671;28;20033;-63
2021/10/22 14:42:15;;;;;;;9.07;4.00;;;;;;;;;;5043879;28;20106;-63
2021/10/22 14:44:42;;;;;;;7.25;3.67;;;;;;;;;;5043991;28;20710;-63
2021/10/22 14:47:22;;;;;;;7.00;3.85;;;;;;;;;;5043687;28;20017;-63
2021/10/22 14:49:51;;;;;;;11.65;4.45;;;;;;;;;;5042593;28;20487;-64
2021/10/22 14:52:20;;;;;;;5.22;3.40;;;;;;;;;;5042569;28;20102;-63
2021/10/22 14:54:57;;;;;;;7.88;3.80;;;;;;;;;;5044022;28;20039;-63
2021/10/22 14:57:22;;;;;;;6.95;3.75;;;;;;;;;;5049654;28;20565;-62
2021/10/22 14:59:47;;;;;;;7.82;4.15;;;;;;;;;;5052552;28;20124;-66
2021/10/22 15:02:15;;;;;;;6.88;3.90;;;;;;;;;;5046714;28;20494;-63
2021/10/22 15:04:41;;;;;;;6.85;4.07;;;;;;;;;;5046092;28;20024;-63
2021/10/22 15:07:06;;;;;;;12.70;4.20;;;;;;;;;;5045753;28;20032;-63
2021/10/22 15:09:31;;;;;;;8.07;3.90;;;;;;;;;;5047088;28;20032;-63
2021/10/22 15:11:57;;;;;;;7.97;4.10;;;;;;;;;;5046603;28;20032;-63